• Join FlightAware (Why Join?)
  • Login
  • US Flag 
 
07:47AM EST


 

Airport Tracker/Info


-or-


 

Live Flight TrackerFlight Track Log ✈ N521LL ✈ 17-Apr-2013 ✈ KLBB - MMSD / SJD

Flight Track Log - Related Links

Times and Time Zones

All times are in EDT time to prevent confusion due to time zone crossing. See the N521LL flight status page for this flight to view local times or setup timezone preferences in your user account.

Time Position Orientation Groundspeed Altitude Reporting Facility
EDT Latitude Longitude Course Direction KTS MPH feet Rate Location/Type
10:28AM 33.6342 -101.8317 177° South 193 222 4,400  Level Fort Worth Center
10:28AM 33.6153 -101.8306 177° South 188 216 5,200 2,100 Climbing Fort Worth Center
10:29AM 33.5581 -101.8603 203° Southwest 259 298 7,200 2,340 Climbing Fort Worth Center
10:30AM 33.4958 -101.9044 211° Southwest 264 304 10,000 3,060 Climbing Fort Worth Center
10:31AM 33.4439 -101.9564 220° Southwest 253 291 13,100 3,060 Climbing Fort Worth Center
10:32AM 33.3836 -102.0056 214° Southwest 275 316 16,000 1,860 Climbing Fort Worth Center
10:33AM 33.3189 -102.0619 216° Southwest 299 344 17,000 480 Climbing Fort Worth Center
10:34AM 33.2500 -102.1178 214° Southwest 307 353 17,000  Level Fort Worth Center
10:35AM 33.1897 -102.1717 217° Southwest 290 334 17,000 540 Level Fort Worth Center
10:36AM 33.1231 -102.2228 213° Southwest 285 328 18,100 1,260 Climbing Fort Worth Center
10:37AM 33.0625 -102.2739 215° Southwest 280 322 19,600 1,680 Climbing Fort Worth Center
10:38AM 32.9958 -102.3272 214° Southwest 286 329 21,500 1,620 Climbing Fort Worth Center
10:39AM 32.9308 -102.3881 218° Southwest 293 337 22,900 1,500 Climbing Fort Worth Center
10:40AM 32.8725 -102.4367 215° Southwest 293 337 24,500 1,440 Climbing Fort Worth Center
10:41AM 32.8014 -102.4944 214° Southwest 298 343 25,800 1,140 Climbing Fort Worth Center
10:42AM 32.7300 -102.5572 216° Southwest 310 357 26,800 1,080 Climbing Fort Worth Center
10:43AM 32.6564 -102.6169 214° Southwest 320 368 28,000 1,320 Climbing Fort Worth Center
10:45AM 32.5094 -102.7367 215° Southwest 326 375 30,900 1,380 Climbing Fort Worth Center
10:46AM 32.4403 -102.7964 216° Southwest 320 368 32,300 1,260 Climbing Fort Worth Center
10:47AM 32.3711 -102.8489 213° Southwest 315 362 33,500 840 Climbing Fort Worth Center
10:48AM 32.3017 -102.9086 216° Southwest 315 362 34,000 1,260 Climbing Fort Worth Center
10:49AM 32.2347 -102.9611 214° Southwest 315 362 36,100 1,920 Climbing Fort Worth Center
10:49AM 32.2136 -102.9736 207° Southwest 284 327 36,400 660 Climbing Albuquerque Center
10:50AM 32.1528 -103.0272 217° Southwest 274 315 37,000 360 Climbing Albuquerque Center
10:51AM 32.1047 -103.0658 214° Southwest 288 331 37,100 720 Climbing Fort Worth Center
10:52AM 32.0217 -103.1331 214° Southwest 284 327 38,500 960 Climbing Albuquerque Center
10:54AM 31.9581 -103.1844 214° Southwest 281 323 39,400 720 Climbing Albuquerque Center
10:55AM 31.8981 -103.2333 215° Southwest 271 312 40,000 240 Climbing Albuquerque Center
10:56AM 31.8211 -103.2911 213° Southwest 269 310 40,000  Level Albuquerque Center
10:57AM 31.7575 -103.3461 216° Southwest 274 315 40,000  Level Albuquerque Center
10:58AM 31.6872 -103.4000 213° Southwest 285 328 40,000  Level Albuquerque Center
10:59AM 31.6156 -103.4572 214° Southwest 296 341 40,000  Level Albuquerque Center
11:00AM 31.5422 -103.5156 214° Southwest 307 353 40,000  Level Albuquerque Center
11:01AM 31.4742 -103.5778 218° Southwest 309 356 40,000  Level Albuquerque Center
11:02AM 31.4147 -103.6486 225° Southwest 307 353 40,000  Level Albuquerque Center
11:03AM 31.3489 -103.7150 221° Southwest 310 357 40,000  Level Albuquerque Center
11:04AM 31.2711 -103.7961 222° Southwest 313 360 40,000  Level Albuquerque Center
11:05AM 31.2053 -103.8622 221° Southwest 313 360 40,000  Level Albuquerque Center
11:06AM 31.1386 -103.9314 222° Southwest 317 365 40,000  Level Albuquerque Center
11:07AM 31.0708 -104.0006 221° Southwest 322 371 40,000  Level Albuquerque Center
11:08AM 31.0050 -104.0692 222° Southwest 319 367 40,000  Level Albuquerque Center
11:09AM 30.9356 -104.1386 221° Southwest 326 375 40,000  Level Albuquerque Center
11:10AM 30.8672 -104.2086 221° Southwest 326 375 40,000  Level Albuquerque Center
11:11AM 30.7878 -104.2925 222° Southwest 322 371 40,000  Level Albuquerque Center
11:12AM 30.7189 -104.3583 219° Southwest 320 368 40,000  Level Albuquerque Center
11:13AM 30.6522 -104.4283 222° Southwest 321 369 40,000  Level Albuquerque Center
11:14AM 30.5833 -104.4956 220° Southwest 323 372 40,000  Level Albuquerque Center
11:15AM 30.5158 -104.5636 221° Southwest 320 368 40,000  Level Albuquerque Center
11:16AM 30.4492 -104.6314 221° Southwest 320 368 40,000  Level Albuquerque Center
11:17AM 30.3814 -104.6989 221° Southwest 320 368 40,000  Level Albuquerque Center
11:18AM 30.3019 -104.7811 222° Southwest 318 366 40,000  Level Albuquerque Center
11:19AM 30.2325 -104.8469 219° Southwest 320 368 40,000  Level Albuquerque Center
11:20AM 30.1667 -104.9150 222° Southwest 318 366 40,000  Level Albuquerque Center
11:21AM 30.0978 -104.9797 219° Southwest 320 368 40,000  Level Albuquerque Center
11:22AM 30.0314 -105.0489 222° Southwest 319 367 40,000  Level Albuquerque Center
11:23AM 29.9633 -105.1133 219° Southwest 318 366 40,000  Level Albuquerque Center
11:24AM 29.8836 -105.1939 221° Southwest 316 364 40,000  Level Albuquerque Center
11:25AM 29.8158 -105.2600 220° Southwest 319 367 40,000  Level Albuquerque Center
11:27AM 29.7483 -105.3258 220° Southwest 318 366 40,000  Level Albuquerque Center
11:28AM 29.6828 -105.3967 223° Southwest 321 369 40,000  Level Albuquerque Center
11:30AM 29.5407 -105.5131 215° Southwest  Level FlightAware Approximate
11:37AM 29.0425 -105.9504 220° Southwest  Level FlightAware Approximate
11:38AM 28.9741 -106.0162 220° Southwest  Level FlightAware Approximate
11:39AM 28.9056 -106.0820 220° Southwest  Level FlightAware Approximate
11:40AM 28.8371 -106.1477 220° Southwest  Level FlightAware Approximate
11:41AM 28.7686 -106.2133 220° Southwest  Level FlightAware Approximate
11:42AM 28.7000 -106.2788 220° Southwest  Level FlightAware Approximate
11:43AM 28.6314 -106.3442 220° Southwest  Level FlightAware Approximate
11:44AM 28.5627 -106.4096 220° Southwest  Level FlightAware Approximate
11:45AM 28.4941 -106.4748 220° Southwest  Level FlightAware Approximate
11:46AM 28.4254 -106.5400 220° Southwest  Level FlightAware Approximate
11:47AM 28.3567 -106.6051 220° Southwest  Level FlightAware Approximate
11:48AM 28.2879 -106.6702 220° Southwest  Level FlightAware Approximate
11:49AM 28.2191 -106.7351 220° Southwest  Level FlightAware Approximate
11:50AM 28.1503 -106.7999 220° Southwest  Level FlightAware Approximate
11:51AM 28.0815 -106.8647 220° Southwest  Level FlightAware Approximate
11:52AM 28.0126 -106.9294 220° Southwest  Level FlightAware Approximate
11:53AM 27.9437 -106.9940 220° Southwest  Level FlightAware Approximate
11:54AM 27.8748 -107.0585 220° Southwest  Level FlightAware Approximate
11:55AM 27.8058 -107.1230 220° Southwest  Level FlightAware Approximate
11:56AM 27.7368 -107.1873 220° Southwest  Level FlightAware Approximate
11:57AM 27.6678 -107.2516 220° Southwest  Level FlightAware Approximate
11:58AM 27.5988 -107.3158 219° Southwest  Level FlightAware Approximate
11:59AM 27.5297 -107.3799 219° Southwest  Level FlightAware Approximate
12:00PM 27.4606 -107.4440 219° Southwest  Level FlightAware Approximate
12:01PM 27.3913 -107.5077 218° Southwest  Level FlightAware Approximate
12:02PM 27.3206 -107.5695 218° Southwest  Level FlightAware Approximate
12:03PM 27.2500 -107.6313 218° Southwest  Level FlightAware Approximate
12:04PM 27.1794 -107.6931 218° Southwest  Level FlightAware Approximate
12:05PM 27.1088 -107.7548 218° Southwest  Level FlightAware Approximate
12:06PM 27.0383 -107.8167 218° Southwest  Level FlightAware Approximate
12:07PM 26.9678 -107.8784 218° Southwest  Level FlightAware Approximate
12:08PM 26.8972 -107.9400 218° Southwest  Level FlightAware Approximate
12:09PM 26.8279 -108.0034 220° Southwest  Level FlightAware Approximate
12:10PM 26.7595 -108.0681 220° Southwest  Level FlightAware Approximate
12:11PM 26.6912 -108.1327 220° Southwest  Level FlightAware Approximate
12:12PM 26.6227 -108.1972 220° Southwest  Level FlightAware Approximate
12:13PM 26.5541 -108.2612 219° Southwest  Level FlightAware Approximate
12:14PM 26.4841 -108.3235 219° Southwest  Level FlightAware Approximate
12:15PM 26.4140 -108.3857 218° Southwest  Level FlightAware Approximate
12:16PM 26.3437 -108.4473 218° Southwest  Level FlightAware Approximate
12:17PM 26.2733 -108.5089 218° Southwest  Level FlightAware Approximate
12:18PM 26.2028 -108.5704 218° Southwest  Level FlightAware Approximate
12:19PM 26.1324 -108.6319 218° Southwest  Level FlightAware Approximate
12:20PM 26.0619 -108.6932 218° Southwest  Level FlightAware Approximate
12:21PM 25.9914 -108.7545 218° Southwest  Level FlightAware Approximate
12:22PM 25.9209 -108.8157 218° Southwest  Level FlightAware Approximate
12:23PM 25.8504 -108.8769 218° Southwest  Level FlightAware Approximate
12:24PM 25.7798 -108.9379 218° Southwest  Level FlightAware Approximate
12:25PM 25.7092 -108.9989 218° Southwest  Level FlightAware Approximate
12:26PM 25.6368 -109.0566 204° Southwest  Level FlightAware Approximate
12:27PM 25.5534 -109.0912 193° South  Level FlightAware Approximate
12:28PM 25.4663 -109.1139 193° South  Level FlightAware Approximate
12:29PM 25.3792 -109.1367 193° South  Level FlightAware Approximate
12:30PM 25.2921 -109.1594 193° South  Level FlightAware Approximate
12:31PM 25.2050 -109.1820 193° South  Level FlightAware Approximate
12:32PM 25.1178 -109.2016 194° South  Level FlightAware Approximate
12:33PM 25.0310 -109.2257 194° South  Level FlightAware Approximate
12:34PM 24.9443 -109.2498 194° South  Level FlightAware Approximate
12:35PM 24.8574 -109.2732 193° South  Level FlightAware Approximate
12:36PM 24.7698 -109.2934 191° South  Level FlightAware Approximate
12:37PM 24.6820 -109.3122 191° South  Level FlightAware Approximate
12:38PM 24.5942 -109.3310 191° South  Level FlightAware Approximate
12:39PM 24.5083 -109.3584 197° South  Level FlightAware Approximate
12:40PM 24.4227 -109.3869 197° South  Level FlightAware Approximate
12:41PM 24.3371 -109.4154 197° South  Level FlightAware Approximate
12:42PM 24.2493 -109.4299 193° South  Level FlightAware Approximate
12:43PM 24.1622 -109.4527 193° South  Level FlightAware Approximate
12:44PM 24.0752 -109.4754 193° South  Level FlightAware Approximate
12:45PM 23.9882 -109.4981 193° South  Level FlightAware Approximate
12:46PM 23.9007 -109.5167 180° South  Level FlightAware Approximate
12:47PM 23.8130 -109.5360 191° South  Level FlightAware Approximate
12:48PM 23.7260 -109.5580 197° South  Level FlightAware Approximate
12:49PM 23.6404 -109.5865 197° South  Level FlightAware Approximate
12:50PM 23.5548 -109.6151 197° South  Level FlightAware Approximate
12:51PM 23.4670 -109.6333 190° South  Level FlightAware Approximate
12:52PM 23.3793 -109.6520 205° Southwest  Level FlightAware Approximate
12:53PM 23.2933 -109.6694 200° South  Level FlightAware Approximate
12:54PM 23.2090 -109.7015 190° South  Level FlightAware Approximate
12:55PM 23.1518 -109.7210 190° South  Level Estimated
12:56PM 23.1518 -109.7210 190° South  Level Estimated
12:57PM 23.1518 -109.7210 190° South  Level Estimated
12:58PM 23.1518 -109.7210 190° South  Level Estimated
12:59PM 23.1518 -109.7210 190° South  Level Estimated
01:00PM 23.1518 -109.7210 190° South  Level Estimated
01:01PM 23.1518 -109.7210 190° South  Level Estimated
01:02PM 23.1518 -109.7210 190° South  Level Estimated
01:03PM 23.1518 -109.7210 190° South  Level Estimated
01:04PM 23.1518 -109.7210 190° South  Level Estimated
01:05PM 23.1518 -109.7210 190° South  Level Estimated
01:06PM 23.1518 -109.7210 190° South  Level Estimated